Time;durP1;ratioP1;P1;durP2;ratioP2;P2;SDS_P1;SDS_P2;PMS_P1;PMS_P2;Temp;Humidity;BMP_temperature;BMP_pressure;BME280_temperature;BME280_humidity;BME280_pressure;Samples;Min_cycle;Max_cycle;Signal;HPM_P1;HPM_P2
2022/06/30 00:00:37;;;;;;;1.38;1.02;;;27.00;54.60;;;;;;5009334;28;20037;-64
2022/06/30 00:03:03;;;;;;;1.45;1.20;;;27.00;54.60;;;;;;5005506;28;20030;-63
2022/06/30 00:05:28;;;;;;;1.85;1.30;;;27.00;54.60;;;;;;5008248;28;20057;-64
2022/06/30 00:07:54;;;;;;;1.30;1.10;;;27.00;54.60;;;;;;5008609;28;20044;-67
2022/06/30 00:10:20;;;;;;;1.50;1.10;;;27.00;54.60;;;;;;5006444;28;20678;-62
2022/06/30 00:12:46;;;;;;;1.73;1.20;;;26.90;54.60;;;;;;5009184;28;20025;-63
2022/06/30 00:15:12;;;;;;;2.22;1.38;;;27.00;54.60;;;;;;5008851;28;20087;-62
2022/06/30 00:17:37;;;;;;;1.80;1.30;;;27.00;54.60;;;;;;5009944;28;20044;-65
2022/06/30 00:20:04;;;;;;;1.67;1.20;;;27.00;54.80;;;;;;5010425;28;20033;-66
2022/06/30 00:22:29;;;;;;;1.50;1.10;;;26.90;54.70;;;;;;5003603;28;20045;-64
2022/06/30 00:24:56;;;;;;;1.15;1.05;;;26.90;54.80;;;;;;5006037;28;20034;-62
2022/06/30 00:27:21;;;;;;;1.30;1.10;;;26.90;54.90;;;;;;5004749;28;20034;-67
2022/06/30 00:29:47;;;;;;;1.63;1.15;;;26.90;54.90;;;;;;5004679;28;20047;-64
2022/06/30 00:32:13;;;;;;;1.42;1.20;;;26.90;54.90;;;;;;5003644;28;20037;-64
2022/06/30 00:34:38;;;;;;;1.70;1.20;;;26.90;54.90;;;;;;5004301;28;20034;-64
2022/06/30 00:37:04;;;;;;;1.75;1.20;;;26.90;55.00;;;;;;5006193;28;20041;-62
2022/06/30 00:39:30;;;;;;;1.77;1.30;;;26.90;55.00;;;;;;5009076;28;20771;-63
2022/06/30 00:41:56;;;;;;;1.52;1.13;;;26.90;55.00;;;;;;5005371;28;20075;-61
2022/06/30 00:44:22;;;;;;;1.50;1.30;;;26.90;55.00;;;;;;5009879;28;20066;-65
2022/06/30 00:46:48;;;;;;;1.80;1.08;;;26.90;55.00;;;;;;5008684;28;20030;-66
2022/06/30 00:49:17;;;;;;;1.60;1.30;;;26.80;54.90;;;;;;5016190;28;20040;-60
2022/06/30 00:51:42;;;;;;;1.75;1.20;;;26.80;54.90;;;;;;5010560;28;21672;-63
2022/06/30 00:54:11;;;;;;;1.73;1.20;;;26.80;54.90;;;;;;5016097;28;20219;-61
2022/06/30 00:56:40;;;;;;;1.70;1.25;;;26.80;54.90;;;;;;5011086;28;20036;-60
2022/06/30 00:59:07;;;;;;;;;;;26.80;54.90;;;;;;5015534;28;20029;-61
2022/06/30 01:01:33;;;;;;;2.00;1.40;;;26.80;54.90;;;;;;5013952;28;20031;-65
2022/06/30 01:04:00;;;;;;;1.30;1.20;;;26.80;54.90;;;;;;5015199;28;20056;-64
2022/06/30 01:06:27;;;;;;;2.35;1.20;;;26.80;54.90;;;;;;5010361;28;20027;-62
2022/06/30 01:08:53;;;;;;;1.45;1.20;;;26.80;54.90;;;;;;5015034;28;20116;-61
2022/06/30 01:14:04;;;;;;;1.27;1.02;;;26.80;54.80;;;;;;5011317;28;20068;-62
2022/06/30 01:16:30;;;;;;;1.40;1.20;;;26.80;54.80;;;;;;5010011;28;20029;-66
2022/06/30 01:18:56;;;;;;;1.42;1.25;;;26.80;54.80;;;;;;5011913;28;20041;-66
2022/06/30 01:21:25;;;;;;;1.77;1.20;;;26.80;54.80;;;;;;5010288;28;20037;-64
2022/06/30 01:23:50;;;;;;;1.75;1.40;;;26.70;54.70;;;;;;5011291;28;20033;-63
2022/06/30 01:26:16;;;;;;;1.45;1.10;;;26.80;54.80;;;;;;5012618;28;20043;-64
2022/06/30 01:28:41;;;;;;;1.48;1.23;;;26.70;54.70;;;;;;5011500;28;20091;-62
2022/06/30 01:31:07;;;;;;;1.65;1.30;;;26.80;54.80;;;;;;5009618;28;20037;-68
2022/06/30 01:33:33;;;;;;;1.55;1.20;;;26.70;54.70;;;;;;5009689;28;20032;-66
2022/06/30 01:35:58;;;;;;;1.48;1.30;;;26.70;54.70;;;;;;5007222;28;20086;-65
2022/06/30 01:38:24;;;;;;;1.70;1.25;;;26.70;54.80;;;;;;5013170;28;20037;-68
2022/06/30 01:40:50;;;;;;;1.40;1.20;;;26.70;54.70;;;;;;5012036;28;20422;-66
2022/06/30 01:43:15;;;;;;;1.30;1.17;;;26.70;54.70;;;;;;5010729;28;20844;-63
2022/06/30 01:45:42;;;;;;;1.35;1.20;;;26.70;54.70;;;;;;5009716;28;20029;-64
2022/06/30 01:48:09;;;;;;;1.50;1.13;;;26.70;54.70;;;;;;5011694;28;20169;-65
2022/06/30 01:50:35;;;;;;;1.30;1.10;;;26.70;54.70;;;;;;5007372;28;20017;-66
2022/06/30 01:53:01;;;;;;;1.50;1.10;;;26.70;54.70;;;;;;5010017;28;20030;-66
2022/06/30 01:55:28;;;;;;;1.40;1.10;;;26.70;54.70;;;;;;5011670;28;20044;-66
2022/06/30 01:57:54;;;;;;;1.20;1.08;;;26.70;54.70;;;;;;5011474;28;20572;-64
2022/06/30 02:00:26;;;;;;;1.65;1.30;;;26.70;54.70;;;;;;5009526;28;20448;-61
2022/06/30 02:02:53;;;;;;;1.50;1.20;;;26.70;54.70;;;;;;5010377;28;20104;-64
2022/06/30 02:05:19;;;;;;;1.33;1.10;;;26.70;54.60;;;;;;5007503;28;20034;-63
2022/06/30 02:07:46;;;;;;;1.55;1.30;;;26.70;54.70;;;;;;5007610;28;20063;-68
2022/06/30 02:10:15;;;;;;;1.70;1.23;;;26.70;54.60;;;;;;5013507;28;20466;-61
2022/06/30 02:12:47;;;;;;;1.45;1.13;;;26.70;54.60;;;;;;5011868;28;20071;-66
2022/06/30 02:15:13;;;;;;;1.67;1.15;;;26.70;54.60;;;;;;5009032;28;20304;-65
2022/06/30 02:17:39;;;;;;;1.30;1.20;;;26.70;54.60;;;;;;5010074;28;20584;-64
2022/06/30 02:20:07;;;;;;;1.33;1.20;;;26.70;54.60;;;;;;5013450;28;20052;-63
2022/06/30 02:22:34;;;;;;;1.33;1.15;;;26.70;54.60;;;;;;5009205;28;20030;-63
2022/06/30 02:24:59;;;;;;;1.40;1.10;;;26.70;54.60;;;;;;5012719;28;20445;-64
2022/06/30 02:27:25;;;;;;;1.83;1.23;;;26.60;54.50;;;;;;5009913;28;20034;-65
2022/06/30 02:29:51;;;;;;;1.65;1.20;;;26.70;54.60;;;;;;5011305;28;20030;-64
2022/06/30 02:32:18;;;;;;;1.35;1.20;;;26.70;54.60;;;;;;5008465;28;20494;-65
2022/06/30 02:34:44;;;;;;;1.30;1.17;;;26.60;54.50;;;;;;5011368;28;20022;-61
2022/06/30 02:37:10;;;;;;;2.38;1.33;;;26.60;54.50;;;;;;5005780;28;20025;-62
2022/06/30 02:39:36;;;;;;;1.38;1.02;;;26.60;54.50;;;;;;5012793;28;20025;-64
2022/06/30 02:42:01;;;;;;;1.40;1.10;;;26.60;54.50;;;;;;5011995;28;20459;-62
2022/06/30 02:44:27;;;;;;;1.40;1.20;;;26.70;54.50;;;;;;5009536;28;20121;-63
2022/06/30 02:46:54;;;;;;;1.70;1.20;;;26.70;54.50;;;;;;5007581;28;20029;-64
2022/06/30 02:49:21;;;;;;;1.83;1.40;;;26.60;54.50;;;;;;5007280;28;20433;-63
2022/06/30 02:51:48;;;;;;;1.60;1.08;;;26.60;54.50;;;;;;5009099;28;20030;-65
2022/06/30 02:54:14;;;;;;;1.30;1.20;;;26.60;54.50;;;;;;5013347;28;20451;-66
2022/06/30 02:56:40;;;;;;;1.70;1.20;;;26.60;54.50;;;;;;5010539;28;20025;-64
2022/06/30 02:59:05;;;;;;;1.45;1.10;;;26.60;54.50;;;;;;5012316;28;20029;-64
2022/06/30 03:01:31;;;;;;;1.23;1.08;;;26.60;54.50;;;;;;5007772;28;20554;-64
2022/06/30 03:03:56;;;;;;;1.48;1.20;;;26.60;54.40;;;;;;5011034;28;20037;-64
2022/06/30 03:06:22;;;;;;;2.22;1.48;;;26.60;54.40;;;;;;5001453;28;20029;-64
2022/06/30 03:08:48;;;;;;;1.67;1.10;;;26.60;54.50;;;;;;5012257;28;20478;-62
2022/06/30 03:11:16;;;;;;;1.73;1.30;;;26.60;54.50;;;;;;5008929;28;20027;-64
2022/06/30 03:13:45;;;;;;;1.25;1.10;;;26.60;54.50;;;;;;5007549;28;20457;-64
2022/06/30 03:16:11;;;;;;;1.25;1.02;;;26.60;54.40;;;;;;5021488;28;20026;-62
2022/06/30 03:18:37;;;;;;;1.13;1.00;;;26.60;54.40;;;;;;5008139;28;20037;-62
2022/06/30 03:21:02;;;;;;;1.50;1.10;;;26.60;54.40;;;;;;5004410;28;20045;-61
2022/06/30 03:23:28;;;;;;;1.95;1.10;;;26.60;54.40;;;;;;5005960;28;20397;-63
2022/06/30 03:25:54;;;;;;;1.90;1.42;;;26.60;54.70;;;;;;5011683;28;20087;-63
2022/06/30 03:28:19;;;;;;;2.05;1.40;;;26.50;54.40;;;;;;5006518;28;20030;-62
2022/06/30 03:30:47;;;;;;;1.52;1.25;;;26.60;54.40;;;;;;5007820;28;20598;-63
2022/06/30 03:33:13;;;;;;;1.20;1.10;;;26.60;54.40;;;;;;5007245;28;20033;-62
2022/06/30 03:35:39;;;;;;;3.40;1.25;;;26.60;54.40;;;;;;5006152;28;20514;-63
2022/06/30 03:38:04;;;;;;;3.13;1.67;;;26.60;54.40;;;;;;5008041;28;20090;-64
2022/06/30 03:40:30;;;;;;;4.13;1.92;;;26.60;54.20;;;;;;5008564;28;20128;-65
2022/06/30 03:42:56;;;;;;;7.53;2.20;;;26.50;53.70;;;;;;5012546;28;20067;-63
2022/06/30 03:45:21;;;;;;;5.97;2.67;;;26.50;53.50;;;;;;5008774;28;20052;-64
2022/06/30 03:47:47;;;;;;;5.78;2.53;;;26.50;53.30;;;;;;5008805;28;20087;-62
2022/06/30 03:50:13;;;;;;;7.35;2.85;;;26.50;53.20;;;;;;5004548;28;20100;-61
2022/06/30 03:52:38;;;;;;;6.07;2.58;;;26.50;53.10;;;;;;5007280;28;20025;-66
2022/06/30 03:55:04;;;;;;;7.43;2.90;;;26.50;53.10;;;;;;5007786;28;20030;-64
2022/06/30 03:57:30;;;;;;;6.50;2.80;;;26.40;52.90;;;;;;5006199;28;20061;-61
2022/06/30 03:59:55;;;;;;;7.13;2.75;;;26.40;52.90;;;;;;5009655;28;20033;-66
2022/06/30 04:02:21;;;;;;;4.13;2.53;;;26.40;52.90;;;;;;5006878;28;20042;-64
2022/06/30 04:04:46;;;;;;;6.60;2.53;;;26.40;52.80;;;;;;5009273;28;20061;-64
2022/06/30 04:07:12;;;;;;;6.65;2.22;;;26.40;52.90;;;;;;5006805;28;20033;-64
2022/06/30 04:09:38;;;;;;;6.38;2.75;;;26.30;52.80;;;;;;5007059;28;20036;-65
2022/06/30 04:12:04;;;;;;;5.35;2.67;;;26.40;52.90;;;;;;5008161;28;20208;-62
2022/06/30 04:14:29;;;;;;;7.15;2.38;;;26.30;52.90;;;;;;5005542;28;20505;-62
2022/06/30 04:16:55;;;;;;;4.90;2.50;;;26.30;52.90;;;;;;5008964;28;20033;-63
2022/06/30 04:19:20;;;;;;;4.30;2.33;;;26.30;53.00;;;;;;5008749;28;20048;-63
2022/06/30 04:21:46;;;;;;;4.22;2.17;;;26.30;53.10;;;;;;5001303;28;20167;-63
2022/06/30 04:24:11;;;;;;;3.20;2.40;;;26.30;53.10;;;;;;5008298;28;20025;-64
2022/06/30 04:26:37;;;;;;;4.22;2.38;;;26.30;53.10;;;;;;5003562;28;20037;-65
2022/06/30 04:29:03;;;;;;;3.90;2.80;;;26.30;53.20;;;;;;5008459;28;20087;-67
2022/06/30 04:34:12;;;;;;;4.22;2.33;;;26.30;53.10;;;;;;5008776;28;20107;-63
2022/06/30 04:36:38;;;;;;;4.22;2.40;;;26.20;53.00;;;;;;5013616;28;20029;-62
2022/06/30 04:39:04;;;;;;;2.63;2.05;;;26.20;53.10;;;;;;5004627;28;20033;-62
2022/06/30 04:41:29;;;;;;;4.53;2.60;;;26.20;53.10;;;;;;5014553;28;20120;-64
2022/06/30 04:43:59;;;;;;;3.50;2.17;;;26.20;53.10;;;;;;5011995;28;20117;-65
2022/06/30 04:46:26;;;;;;;4.07;2.42;;;26.20;53.20;;;;;;5006654;28;20114;-63
2022/06/30 04:48:52;;;;;;;3.97;2.42;;;26.20;53.30;;;;;;5015029;28;20029;-66
2022/06/30 04:51:18;;;;;;;3.97;2.40;;;26.20;53.30;;;;;;5007976;28;20623;-64
2022/06/30 04:53:44;;;;;;;4.43;2.10;;;26.20;53.30;;;;;;5007664;28;20126;-62
2022/06/30 04:56:11;;;;;;;4.15;2.30;;;26.20;53.40;;;;;;5004522;28;20431;-64
2022/06/30 04:58:37;;;;;;;4.05;2.42;;;26.20;53.50;;;;;;5005519;28;20029;-63
2022/06/30 05:01:03;;;;;;;2.92;2.13;;;26.20;53.60;;;;;;5012398;28;20052;-67
2022/06/30 05:03:30;;;;;;;4.38;2.58;;;26.20;53.70;;;;;;5008319;28;20108;-64
2022/06/30 05:05:56;;;;;;;3.78;2.50;;;26.20;53.80;;;;;;5004475;28;20061;-63
2022/06/30 05:08:21;;;;;;;4.43;2.60;;;26.20;53.90;;;;;;5006161;28;20111;-66
2022/06/30 05:10:47;;;;;;;5.25;2.88;;;26.20;54.00;;;;;;5010097;28;20442;-67
2022/06/30 05:13:13;;;;;;;4.45;2.78;;;26.20;54.10;;;;;;5006141;28;20028;-63
2022/06/30 05:15:38;;;;;;;5.47;2.50;;;26.10;54.20;;;;;;5012673;28;20067;-64
2022/06/30 05:18:04;;;;;;;4.38;2.60;;;26.20;54.20;;;;;;5012842;28;20037;-64
2022/06/30 05:20:31;;;;;;;3.88;2.65;;;26.20;54.30;;;;;;5007169;28;20044;-64
2022/06/30 05:22:57;;;;;;;3.42;2.55;;;26.10;54.30;;;;;;5011933;28;20158;-64
2022/06/30 05:28:07;;;;;;;4.10;2.72;;;26.10;54.50;;;;;;5011914;28;20052;-64
2022/06/30 05:30:33;;;;;;;4.10;2.70;;;26.10;54.60;;;;;;5009305;28;20046;-63
2022/06/30 05:32:58;;;;;;;4.68;2.50;;;26.10;54.80;;;;;;5012033;28;20036;-63
2022/06/30 05:35:24;;;;;;;3.88;2.60;;;26.10;54.90;;;;;;5010344;28;20117;-67
2022/06/30 05:37:50;;;;;;;4.53;3.00;;;26.10;55.00;;;;;;5010360;28;20153;-67
2022/06/30 05:40:15;;;;;;;3.70;2.80;;;26.10;55.10;;;;;;5012345;28;20025;-63
2022/06/30 05:42:41;;;;;;;4.85;2.88;;;26.10;55.20;;;;;;5007352;28;20037;-65
2022/06/30 05:45:07;;;;;;;3.70;2.58;;;26.10;55.40;;;;;;5012331;28;20033;-62
2022/06/30 05:47:32;;;;;;;4.88;2.97;;;26.00;55.40;;;;;;5009402;28;20033;-66
2022/06/30 05:49:58;;;;;;;4.38;2.92;;;26.00;55.50;;;;;;5014035;28;20251;-65
2022/06/30 05:52:24;;;;;;;4.38;2.70;;;26.00;55.70;;;;;;5007894;28;20033;-64
2022/06/30 05:54:49;;;;;;;4.60;2.67;;;26.00;55.70;;;;;;5008400;28;20017;-66
2022/06/30 05:57:15;;;;;;;3.40;2.63;;;26.00;55.90;;;;;;5008488;28;20036;-64
2022/06/30 05:59:41;;;;;;;3.83;2.60;;;26.00;55.90;;;;;;5005796;28;20111;-65
2022/06/30 06:02:07;;;;;;;3.90;2.97;;;26.00;55.90;;;;;;5006013;28;20041;-64
2022/06/30 06:04:34;;;;;;;3.75;2.53;;;26.00;56.00;;;;;;5011099;28;20030;-65
2022/06/30 06:07:02;;;;;;;3.35;2.70;;;26.00;56.10;;;;;;5005065;28;20093;-64
2022/06/30 06:09:28;;;;;;;3.10;2.65;;;26.00;56.20;;;;;;5007706;28;20116;-61
2022/06/30 06:11:54;;;;;;;5.72;3.30;;;26.00;56.40;;;;;;5010568;28;20141;-63
2022/06/30 06:14:21;;;;;;;3.72;2.55;;;26.00;56.50;;;;;;5007115;28;20109;-65
2022/06/30 06:16:47;;;;;;;3.35;2.50;;;26.00;56.90;;;;;;5019960;28;20040;-63
2022/06/30 06:19:13;;;;;;;4.35;2.88;;;26.00;56.90;;;;;;5005307;28;20106;-63
2022/06/30 06:21:40;;;;;;;4.10;2.90;;;26.00;57.00;;;;;;5006136;28;20140;-64
2022/06/30 06:24:06;;;;;;;3.20;2.90;;;26.00;57.10;;;;;;5008393;28;20134;-65
2022/06/30 06:26:31;;;;;;;4.65;3.10;;;26.00;57.20;;;;;;5004395;28;20152;-62
2022/06/30 06:29:06;;;;;;;3.40;3.00;;;26.00;57.30;;;;;;5006819;28;20148;-63
2022/06/30 06:31:41;;;;;;;3.53;2.70;;;26.00;57.40;;;;;;5004090;28;20030;-65
2022/06/30 06:34:07;;;;;;;4.68;2.92;;;26.00;57.60;;;;;;5005812;28;20687;-64
2022/06/30 06:36:34;;;;;;;3.72;3.05;;;25.90;57.50;;;;;;5003515;28;20133;-64
2022/06/30 06:39:00;;;;;;;4.00;3.30;;;26.00;57.70;;;;;;5007905;28;20037;-64
2022/06/30 06:41:26;;;;;;;3.53;3.00;;;26.00;57.70;;;;;;5004362;28;20026;-60
2022/06/30 06:43:52;;;;;;;3.40;2.90;;;26.00;58.00;;;;;;5006094;28;20032;-64
2022/06/30 06:46:18;;;;;;;3.28;2.75;;;25.90;57.70;;;;;;5009748;28;20048;-67
2022/06/30 06:48:44;;;;;;;3.15;2.60;;;26.00;58.00;;;;;;5013066;28;20562;-63
2022/06/30 06:51:10;;;;;;;3.80;3.10;;;25.90;57.90;;;;;;5013046;28;20040;-62
2022/06/30 06:53:37;;;;;;;3.83;2.83;;;26.00;58.00;;;;;;5012886;28;20029;-64
2022/06/30 06:56:03;;;;;;;4.10;3.58;;;26.00;58.00;;;;;;5012541;28;20036;-61
2022/06/30 06:58:29;;;;;;;3.20;2.65;;;26.00;58.10;;;;;;5010596;28;20037;-65
2022/06/30 07:00:55;;;;;;;3.55;2.70;;;26.00;57.90;;;;;;5012711;28;20429;-63
2022/06/30 07:03:21;;;;;;;3.38;2.75;;;26.00;57.90;;;;;;5014663;28;20040;-64
2022/06/30 07:05:46;;;;;;;3.65;2.38;;;26.00;57.60;;;;;;5010765;28;20025;-62
2022/06/30 07:08:12;;;;;;;3.30;2.53;;;26.10;57.50;;;;;;5012833;28;20347;-64
2022/06/30 07:10:38;;;;;;;3.33;2.40;;;26.10;57.50;;;;;;5014580;28;20038;-65
2022/06/30 07:13:03;;;;;;;3.88;2.50;;;26.10;57.30;;;;;;5012939;28;20029;-64
2022/06/30 07:15:29;;;;;;;3.35;2.70;;;26.10;57.20;;;;;;5013788;28;20053;-62
2022/06/30 07:17:55;;;;;;;3.47;2.30;;;26.10;57.00;;;;;;5011019;28;20061;-64
2022/06/30 07:20:21;;;;;;;3.30;2.53;;;26.20;56.90;;;;;;5012822;28;20091;-63
2022/06/30 07:22:47;;;;;;;2.97;2.35;;;26.20;56.80;;;;;;5011831;28;20033;-65
2022/06/30 07:25:13;;;;;;;3.60;2.40;;;26.20;56.80;;;;;;5013339;28;20045;-61
2022/06/30 07:27:38;;;;;;;2.90;2.38;;;26.20;56.60;;;;;;5009701;28;20095;-61
2022/06/30 07:30:05;;;;;;;3.67;2.50;;;26.20;56.60;;;;;;5015843;28;20021;-63
2022/06/30 07:32:30;;;;;;;2.70;2.20;;;26.20;56.50;;;;;;5007824;28;20034;-61
2022/06/30 07:34:56;;;;;;;3.40;2.47;;;26.30;56.50;;;;;;5013003;28;20056;-63
2022/06/30 07:37:22;;;;;;;2.90;2.20;;;26.30;56.40;;;;;;5012216;28;20413;-60
2022/06/30 07:39:47;;;;;;;3.53;2.20;;;26.30;56.30;;;;;;5011563;28;20030;-63
2022/06/30 07:42:13;;;;;;;3.17;2.40;;;26.30;56.20;;;;;;5012129;28;20058;-59
2022/06/30 07:44:39;;;;;;;3.15;2.30;;;26.30;56.00;;;;;;5014430;28;20092;-61
2022/06/30 07:47:05;;;;;;;3.45;2.35;;;26.40;56.00;;;;;;5009244;28;20125;-63
2022/06/30 07:49:30;;;;;;;3.15;2.60;;;26.40;56.00;;;;;;5015697;28;20096;-65
2022/06/30 07:51:56;;;;;;;4.03;2.67;;;26.40;55.80;;;;;;5008467;28;20036;-62
2022/06/30 07:54:21;;;;;;;4.07;2.42;;;26.50;55.80;;;;;;5012706;28;21341;-63
2022/06/30 07:56:47;;;;;;;3.75;2.67;;;26.50;55.70;;;;;;5012724;28;20030;-63
2022/06/30 07:59:13;;;;;;;3.40;2.55;;;26.50;55.60;;;;;;5017480;28;20049;-63
2022/06/30 08:01:39;;;;;;;3.58;2.40;;;26.50;55.50;;;;;;5016705;28;20425;-62
2022/06/30 08:04:04;;;;;;;2.85;2.50;;;26.60;55.50;;;;;;5013761;28;20393;-65
2022/06/30 08:06:30;;;;;;;3.38;2.30;;;26.60;55.50;;;;;;5014843;28;20029;-62
2022/06/30 08:08:56;;;;;;;3.15;2.20;;;26.60;55.50;;;;;;5019329;28;20095;-60
2022/06/30 08:11:22;;;;;;;2.97;2.50;;;26.70;55.40;;;;;;5018113;28;20073;-59
2022/06/30 08:13:48;;;;;;;2.92;2.40;;;26.60;55.30;;;;;;5017536;28;20021;-61
2022/06/30 08:16:15;;;;;;;2.75;2.33;;;26.70;55.30;;;;;;5017484;28;20158;-64
2022/06/30 08:18:41;;;;;;;3.17;2.20;;;26.70;55.20;;;;;;5014895;28;20068;-63
2022/06/30 08:21:07;;;;;;;3.55;2.50;;;26.70;55.10;;;;;;5015991;28;20037;-59
2022/06/30 08:23:33;;;;;;;3.42;2.60;;;26.80;55.10;;;;;;5016831;28;20044;-63
2022/06/30 08:25:59;;;;;;;4.68;2.40;;;26.80;55.00;;;;;;5017018;28;20041;-63
2022/06/30 08:28:24;;;;;;;3.33;2.42;;;26.80;54.90;;;;;;5014395;28;20044;-62
2022/06/30 08:30:50;;;;;;;3.35;2.30;;;26.80;54.80;;;;;;5019323;28;20136;-61
2022/06/30 08:33:16;;;;;;;3.15;2.38;;;26.90;54.80;;;;;;5015386;28;20040;-62
2022/06/30 08:35:43;;;;;;;3.00;2.30;;;26.90;54.80;;;;;;5012789;28;20816;-63
2022/06/30 08:38:09;;;;;;;3.20;2.42;;;26.90;54.70;;;;;;5013119;28;20064;-60
2022/06/30 08:43:22;;;;;;;2.92;2.30;;;27.00;54.60;;;;;;5017710;28;20615;-61
2022/06/30 08:45:49;;;;;;;2.90;2.30;;;27.00;54.50;;;;;;5018403;28;20476;-59
2022/06/30 08:48:15;;;;;;;3.00;2.20;;;27.00;54.40;;;;;;5015221;28;20037;-59
2022/06/30 08:50:43;;;;;;;3.10;2.40;;;27.00;54.40;;;;;;5016333;28;20038;-63
2022/06/30 08:53:09;;;;;;;2.80;2.40;;;27.10;54.40;;;;;;5014830;28;20492;-62
2022/06/30 08:55:36;;;;;;;3.63;2.20;;;27.10;54.30;;;;;;5018330;28;20521;-63
2022/06/30 08:58:05;;;;;;;2.58;2.00;;;27.10;54.30;;;;;;5017408;28;20447;-63
2022/06/30 09:00:32;;;;;;;3.35;2.38;;;27.10;54.30;;;;;;5018868;28;20030;-65
2022/06/30 09:02:58;;;;;;;3.00;2.40;;;27.10;54.20;;;;;;5015504;28;20875;-64
2022/06/30 09:05:23;;;;;;;2.95;2.28;;;27.20;54.20;;;;;;5016647;28;20084;-64
2022/06/30 09:07:49;;;;;;;2.80;2.30;;;27.20;54.20;;;;;;5014271;28;20030;-64
2022/06/30 09:10:15;;;;;;;2.70;2.08;;;27.20;54.10;;;;;;5015724;28;20025;-61
2022/06/30 09:12:56;;;;;;;2.70;2.10;;;27.20;54.10;;;;;;5016394;28;20206;-65
2022/06/30 09:15:21;;;;;;;2.75;1.90;;;27.20;54.00;;;;;;5016383;28;21558;-63
2022/06/30 09:17:47;;;;;;;2.85;2.10;;;27.20;54.00;;;;;;5014411;28;20040;-61
2022/06/30 09:20:14;;;;;;;2.67;2.25;;;27.30;53.90;;;;;;5015342;28;20037;-64
2022/06/30 09:22:41;;;;;;;2.30;1.95;;;27.30;53.90;;;;;;5013617;28;20512;-60
2022/06/30 09:25:08;;;;;;;3.00;2.35;;;27.30;53.80;;;;;;5018138;28;20037;-61
2022/06/30 09:27:36;;;;;;;2.60;2.03;;;27.30;53.80;;;;;;5008719;28;20041;-65
2022/06/30 09:30:09;;;;;;;2.40;2.00;;;27.30;53.70;;;;;;5015744;28;20047;-63
2022/06/30 09:32:54;;;;;;;2.53;2.13;;;27.30;53.70;;;;;;5012768;28;20048;-60
2022/06/30 09:35:21;;;;;;;2.80;2.00;;;27.30;53.70;;;;;;5012839;28;20113;-62
2022/06/30 09:37:58;;;;;;;2.65;1.90;;;27.40;53.70;;;;;;5016539;28;20117;-64
2022/06/30 09:40:37;;;;;;;2.63;2.20;;;27.40;53.70;;;;;;5015053;28;20819;-59
2022/06/30 09:43:06;;;;;;;3.45;2.20;;;27.40;53.60;;;;;;5016042;28;20040;-62
2022/06/30 09:45:42;;;;;;;2.70;2.05;;;27.40;53.60;;;;;;5007160;28;21048;-62
2022/06/30 09:48:10;;;;;;;2.42;2.00;;;27.40;53.50;;;;;;5012586;28;20102;-61
2022/06/30 09:50:36;;;;;;;2.50;1.90;;;27.40;53.50;;;;;;5012529;28;20022;-63
2022/06/30 09:53:14;;;;;;;2.65;2.10;;;27.40;53.50;;;;;;5012666;28;20044;-64
2022/06/30 09:55:45;;;;;;;2.70;2.00;;;27.40;53.50;;;;;;5011946;28;20497;-62
2022/06/30 09:58:16;;;;;;;2.40;1.90;;;27.50;53.60;;;;;;5012783;28;20435;-64
2022/06/30 10:00:52;;;;;;;2.60;2.00;;;27.50;53.50;;;;;;5014242;28;20048;-60
2022/06/30 10:03:20;;;;;;;2.60;1.95;;;27.50;53.60;;;;;;5014480;28;20034;-62
2022/06/30 10:05:48;;;;;;;2.50;2.10;;;27.50;53.50;;;;;;5013299;28;20108;-65
2022/06/30 10:08:15;;;;;;;3.17;1.92;;;27.50;53.50;;;;;;5007889;28;20044;-61
2022/06/30 10:10:42;;;;;;;2.88;2.40;;;27.50;53.50;;;;;;5014965;28;20032;-65
2022/06/30 10:13:16;;;;;;;2.17;1.80;;;27.50;53.50;;;;;;5016090;28;21327;-65
2022/06/30 10:15:47;;;;;;;2.90;2.03;;;27.50;53.50;;;;;;5012285;28;20025;-63
2022/06/30 10:18:13;;;;;;;2.50;1.88;;;27.50;53.50;;;;;;5009680;28;20025;-64
2022/06/30 10:20:40;;;;;;;2.35;1.90;;;27.60;53.60;;;;;;5011578;28;20045;-62
2022/06/30 10:23:08;;;;;;;2.10;1.80;;;27.60;53.50;;;;;;5013136;28;20056;-61
2022/06/30 10:25:35;;;;;;;2.92;2.03;;;27.60;53.50;;;;;;5010210;28;22242;-65
2022/06/30 10:28:01;;;;;;;3.13;2.20;;;27.60;53.50;;;;;;5013883;28;20398;-60
2022/06/30 10:30:39;;;;;;;2.72;2.10;;;27.60;53.40;;;;;;5007283;28;20025;-64
2022/06/30 10:33:19;;;;;;;2.38;1.83;;;27.60;53.40;;;;;;5012108;28;20025;-60
2022/06/30 10:35:59;;;;;;;2.30;1.98;;;27.60;53.40;;;;;;5010730;28;20060;-65
2022/06/30 10:39:00;;;;;;;2.70;2.08;;;27.70;53.40;;;;;;5010080;28;20681;-65
2022/06/30 10:41:26;;;;;;;2.40;2.10;;;27.60;53.30;;;;;;5009516;28;20446;-61
2022/06/30 10:44:03;;;;;;;2.60;2.20;;;27.70;53.30;;;;;;5010918;28;20025;-61
2022/06/30 10:46:56;;;;;;;2.20;1.80;;;27.70;53.30;;;;;;5009906;28;20053;-60
2022/06/30 10:49:26;;;;;;;2.50;2.00;;;27.70;53.30;;;;;;5006891;28;20082;-61
2022/06/30 10:51:57;;;;;;;2.42;1.95;;;27.70;53.30;;;;;;5009974;28;20040;-61
2022/06/30 10:54:31;;;;;;;2.60;2.13;;;27.70;53.20;;;;;;5008647;28;20025;-63
2022/06/30 10:56:59;;;;;;;2.22;1.80;;;27.70;53.30;;;;;;5001390;28;20060;-65
2022/06/30 10:59:34;;;;;;;2.80;2.00;;;27.70;53.20;;;;;;5006699;28;20087;-65
2022/06/30 11:02:12;;;;;;;3.08;2.10;;;27.70;53.20;;;;;;5003553;28;20072;-60
2022/06/30 11:04:38;;;;;;;3.00;2.13;;;27.80;53.30;;;;;;5007371;28;20033;-63
2022/06/30 11:07:08;;;;;;;2.20;2.00;;;27.80;53.20;;;;;;5010859;28;20405;-60
2022/06/30 11:09:54;;;;;;;2.60;1.90;;;27.80;53.20;;;;;;5014030;28;20144;-61
2022/06/30 11:12:41;;;;;;;2.70;2.08;;;27.80;53.10;;;;;;5015065;28;20021;-64
2022/06/30 11:15:08;;;;;;;2.70;1.88;;;27.80;53.00;;;;;;5010806;28;20056;-65
2022/06/30 11:17:39;;;;;;;3.03;2.08;;;27.80;53.00;;;;;;5009851;28;20546;-62
2022/06/30 11:20:07;;;;;;;2.40;1.80;;;27.80;52.90;;;;;;5010410;28;20458;-62
2022/06/30 11:22:34;;;;;;;2.55;1.90;;;27.80;52.90;;;;;;5010651;28;20661;-62
2022/06/30 11:27:17;;;;;;;2.35;1.80;;;27.90;52.90;;;;;;5009115;28;20040;-62
2022/06/30 11:27:59;;;;;;;2.30;1.63;;;27.90;52.90;;;;;;5012150;28;20350;-64
2022/06/30 11:30:30;;;;;;;3.70;1.80;;;27.90;52.90;;;;;;5005992;28;20021;-64
2022/06/30 11:32:56;;;;;;;2.10;1.80;;;27.90;52.90;;;;;;5008617;28;20059;-63
2022/06/30 11:35:29;;;;;;;2.55;1.83;;;28.00;52.90;;;;;;5010246;28;20037;-63
2022/06/30 11:37:55;;;;;;;2.40;1.90;;;28.00;53.00;;;;;;5010861;28;20029;-61
2022/06/30 11:40:21;;;;;;;2.80;1.83;;;28.00;53.00;;;;;;5006357;28;20091;-63
2022/06/30 11:42:46;;;;;;;2.42;1.83;;;28.00;52.90;;;;;;5006202;28;20737;-64
2022/06/30 11:45:19;;;;;;;2.20;1.80;;;28.00;52.90;;;;;;5007285;28;20469;-65
2022/06/30 11:47:55;;;;;;;2.28;1.90;;;28.00;53.00;;;;;;4998407;28;20044;-62
2022/06/30 11:50:26;;;;;;;2.60;1.67;;;28.00;53.00;;;;;;5005585;28;20504;-63
2022/06/30 11:52:53;;;;;;;2.35;2.00;;;28.10;53.50;;;;;;5005554;28;20029;-64
2022/06/30 11:55:23;;;;;;;2.35;1.73;;;28.10;52.90;;;;;;5001070;28;20160;-65
2022/06/30 11:57:49;;;;;;;2.50;1.80;;;28.10;52.90;;;;;;5006988;28;20536;-62
2022/06/30 12:00:17;;;;;;;2.28;1.80;;;28.10;52.80;;;;;;5006050;28;20030;-65
2022/06/30 12:02:45;;;;;;;2.17;1.60;;;28.10;52.90;;;;;;5006047;28;20025;-64
2022/06/30 12:05:13;;;;;;;2.45;1.83;;;28.10;52.80;;;;;;5007770;28;20057;-64
2022/06/30 12:07:40;;;;;;;2.10;1.70;;;28.10;52.90;;;;;;5002382;28;20029;-63
2022/06/30 12:10:09;;;;;;;2.17;1.70;;;28.10;52.90;;;;;;5005472;28;20585;-66
2022/06/30 12:12:36;;;;;;;2.15;1.60;;;28.20;53.00;;;;;;5007608;28;20021;-61
2022/06/30 12:15:12;;;;;;;2.50;1.80;;;28.20;52.90;;;;;;5008877;28;20088;-65
2022/06/30 12:17:40;;;;;;;2.60;1.80;;;28.20;52.90;;;;;;5008143;28;20059;-65
2022/06/30 12:20:09;;;;;;;2.33;1.70;;;28.20;52.80;;;;;;5008703;28;20139;-63
2022/06/30 12:22:38;;;;;;;1.88;1.60;;;28.20;52.80;;;;;;5001224;28;20478;-66
2022/06/30 12:25:05;;;;;;;2.90;1.80;;;28.20;52.80;;;;;;5011499;28;20064;-65
2022/06/30 12:27:38;;;;;;;2.83;1.80;;;28.20;52.80;;;;;;5012199;28;20079;-64
2022/06/30 12:30:09;;;;;;;2.40;1.77;;;28.20;52.80;;;;;;5012254;28;20043;-63
2022/06/30 12:32:35;;;;;;;2.17;1.60;;;28.30;52.90;;;;;;5008304;28;20102;-60
2022/06/30 12:35:11;;;;;;;2.00;1.50;;;28.30;52.90;;;;;;5011535;28;20022;-61
2022/06/30 12:37:43;;;;;;;2.47;1.60;;;28.30;52.90;;;;;;5010265;28;20126;-63
2022/06/30 12:40:11;;;;;;;1.77;1.48;;;28.30;52.90;;;;;;5010298;28;20045;-62
2022/06/30 12:42:44;;;;;;;2.40;1.80;;;28.30;52.80;;;;;;5007566;28;20025;-66
2022/06/30 12:45:50;;;;;;;2.53;1.70;;;28.30;52.80;;;;;;5010041;28;20057;-65
2022/06/30 12:48:54;;;;;;;2.45;1.60;;;28.30;52.80;;;;;;5009550;28;20083;-61
2022/06/30 12:51:32;;;;;;;2.10;1.58;;;28.40;53.50;;;;;;5013973;28;20025;-62
2022/06/30 12:54:02;;;;;;;2.47;1.85;;;28.40;53.50;;;;;;5015561;28;20029;-65
2022/06/30 12:56:29;;;;;;;2.28;1.52;;;28.50;53.50;;;;;;5014062;28;20037;-64
2022/06/30 12:59:01;;;;;;;1.95;1.42;;;28.50;53.30;;;;;;5011691;28;21503;-65
2022/06/30 13:01:51;;;;;;;3.58;1.60;;;28.50;53.20;;;;;;5013018;28;20129;-64